createdAt,value
2017-11-28T00:01:57.559Z,1.70
2017-11-28T00:04:23.798Z,1.50
2017-11-28T00:06:50.734Z,1.30
2017-11-28T00:09:16.906Z,1.30
2017-11-28T00:11:44.153Z,1.40
2017-11-28T00:14:10.356Z,1.50
2017-11-28T00:16:36.636Z,1.63
2017-11-28T00:19:02.910Z,1.40
2017-11-28T00:21:29.913Z,1.40
2017-11-28T00:23:56.164Z,1.67
2017-11-28T00:26:23.246Z,1.53
2017-11-28T00:28:49.493Z,1.50
2017-11-28T00:31:15.718Z,1.57
2017-11-28T00:33:41.926Z,1.80
2017-11-28T00:36:08.146Z,1.73
2017-11-28T00:38:35.180Z,1.63
2017-11-28T00:41:02.111Z,1.77
2017-11-28T00:43:29.795Z,1.37
2017-11-28T00:45:55.978Z,1.90
2017-11-28T00:48:23.002Z,2.20
2017-11-28T00:50:49.934Z,1.70
2017-11-28T00:53:17.094Z,1.83
2017-11-28T00:55:43.358Z,1.90
2017-11-28T00:58:09.550Z,1.70
2017-11-28T01:00:35.794Z,1.73
2017-11-28T01:03:02.000Z,1.90
2017-11-28T01:05:28.266Z,1.90
2017-11-28T01:07:54.474Z,1.80
2017-11-28T01:10:20.725Z,1.50
2017-11-28T01:12:47.014Z,1.80
2017-11-28T01:15:13.234Z,1.80
2017-11-28T01:17:39.447Z,1.80
2017-11-28T01:20:05.674Z,2.10
2017-11-28T01:22:32.038Z,2.33
2017-11-28T01:24:58.973Z,2.37
2017-11-28T01:27:26.093Z,2.20
2017-11-28T01:29:52.279Z,2.40
2017-11-28T01:32:18.521Z,2.93
2017-11-28T01:34:45.533Z,2.83
2017-11-28T01:37:11.778Z,2.90
2017-11-28T01:39:38.743Z,2.47
2017-11-28T01:42:05.057Z,2.60
2017-11-28T01:44:31.238Z,3.20
2017-11-28T01:46:58.221Z,2.60
2017-11-28T01:49:24.503Z,3.03
2017-11-28T01:51:50.735Z,2.90
2017-11-28T01:54:16.934Z,2.70
2017-11-28T01:56:43.141Z,2.90
2017-11-28T01:59:09.501Z,2.90
2017-11-28T02:01:35.685Z,2.67
2017-11-28T02:04:01.910Z,2.27
2017-11-28T02:06:28.228Z,2.70
2017-11-28T02:08:54.517Z,2.50
2017-11-28T02:11:20.753Z,2.90
2017-11-28T02:13:47.034Z,2.50
2017-11-28T02:16:13.349Z,3.00
2017-11-28T02:18:39.667Z,2.87
2017-11-28T02:21:05.877Z,2.70
2017-11-28T02:23:32.102Z,2.50
2017-11-28T02:25:58.437Z,3.67
2017-11-28T02:28:24.680Z,3.33
2017-11-28T02:30:50.903Z,3.50
2017-11-28T02:33:17.146Z,4.30
2017-11-28T02:35:43.322Z,3.83
2017-11-28T02:38:09.580Z,4.30
2017-11-28T02:40:48.089Z,5.10
2017-11-28T02:43:15.048Z,5.50
2017-11-28T02:45:41.242Z,5.53
2017-11-28T02:48:07.433Z,6.10
2017-11-28T02:50:34.648Z,5.80
2017-11-28T02:53:00.833Z,5.67
2017-11-28T02:55:28.949Z,6.43
2017-11-28T02:57:56.096Z,6.83
2017-11-28T03:00:22.412Z,6.50
2017-11-28T03:02:48.606Z,6.23
2017-11-28T03:05:14.877Z,6.43
2017-11-28T03:07:41.060Z,5.57
2017-11-28T03:10:34.027Z,6.13
2017-11-28T03:13:06.077Z,5.47
2017-11-28T03:15:34.159Z,5.90
2017-11-28T03:18:00.449Z,6.33
2017-11-28T03:20:32.472Z,6.00
2017-11-28T03:23:11.048Z,5.73
2017-11-28T03:25:37.273Z,6.43
2017-11-28T03:28:07.355Z,5.10
2017-11-28T03:30:34.350Z,6.37
2017-11-28T03:33:00.563Z,5.73
2017-11-28T03:35:26.780Z,5.10
2017-11-28T03:37:53.111Z,5.80
2017-11-28T03:40:20.044Z,5.07
2017-11-28T03:42:47.032Z,5.20
2017-11-28T03:45:33.005Z,4.67
2017-11-28T03:47:59.227Z,4.77
2017-11-28T03:50:25.413Z,5.43
2017-11-28T03:52:51.716Z,4.70
2017-11-28T03:55:17.951Z,4.93
2017-11-28T03:57:44.141Z,4.80
2017-11-28T04:00:10.350Z,4.30
2017-11-28T04:02:36.566Z,4.33
2017-11-28T04:05:02.827Z,4.80
2017-11-28T04:07:29.019Z,4.13
2017-11-28T04:09:55.326Z,4.40
2017-11-28T04:12:21.621Z,3.70
2017-11-28T04:14:47.858Z,4.63
2017-11-28T04:17:14.070Z,4.33
2017-11-28T04:19:40.326Z,4.33
2017-11-28T04:22:06.503Z,3.90
2017-11-28T04:24:32.698Z,4.20
2017-11-28T04:26:58.973Z,3.53
2017-11-28T04:29:25.913Z,3.80
2017-11-28T04:31:52.923Z,3.77
2017-11-28T04:34:21.994Z,4.37
2017-11-28T04:36:48.227Z,3.80
2017-11-28T04:39:14.455Z,4.10
2017-11-28T04:41:41.433Z,4.20
2017-11-28T04:44:07.664Z,4.00
2017-11-28T04:46:33.895Z,3.83
2017-11-28T04:49:00.137Z,3.80
2017-11-28T04:51:26.450Z,3.70
2017-11-28T04:53:53.392Z,4.10
2017-11-28T04:56:19.688Z,4.20
2017-11-28T04:58:45.885Z,3.30
2017-11-28T05:01:12.077Z,4.10
2017-11-28T05:03:38.299Z,4.33
2017-11-28T05:06:04.581Z,3.50
2017-11-28T05:08:30.786Z,3.73
2017-11-28T05:10:56.964Z,4.03
2017-11-28T05:13:23.967Z,4.03
2017-11-28T05:15:50.205Z,4.07
2017-11-28T05:18:17.183Z,4.50
2017-11-28T05:20:43.456Z,4.20
2017-11-28T05:23:10.419Z,4.17
2017-11-28T05:25:36.795Z,4.30
2017-11-28T05:28:03.793Z,4.90
2017-11-28T05:30:30.083Z,4.10
2017-11-28T05:32:56.525Z,3.60
2017-11-28T05:35:22.768Z,3.97
2017-11-28T05:37:49.008Z,3.40
2017-11-28T05:40:15.225Z,3.40
2017-11-28T05:42:41.499Z,3.33
2017-11-28T05:45:08.480Z,4.10
2017-11-28T05:47:34.776Z,3.60
2017-11-28T05:50:01.119Z,4.00
2017-11-28T05:52:27.659Z,3.80
2017-11-28T05:54:53.870Z,2.83
2017-11-28T05:57:20.133Z,2.80
2017-11-28T05:59:47.080Z,3.00
2017-11-28T06:02:13.306Z,2.50
2017-11-28T06:04:39.556Z,2.10
2017-11-28T06:07:05.854Z,2.50
2017-11-28T06:09:32.075Z,2.10
2017-11-28T06:11:58.338Z,2.00
2017-11-28T06:14:25.368Z,2.00
2017-11-28T06:16:52.318Z,1.40
2017-11-28T06:19:18.550Z,2.30
2017-11-28T06:21:44.810Z,2.63
2017-11-28T06:24:11.085Z,1.50
2017-11-28T06:26:37.342Z,1.80
2017-11-28T06:29:03.583Z,2.00
2017-11-28T06:31:30.627Z,1.67
2017-11-28T06:33:58.208Z,1.50
2017-11-28T06:36:26.186Z,1.77
2017-11-28T06:38:53.209Z,1.73
2017-11-28T06:41:19.446Z,1.57
2017-11-28T06:43:47.373Z,1.50
2017-11-28T06:46:14.471Z,1.53
2017-11-28T06:48:40.700Z,1.23
2017-11-28T06:51:06.924Z,1.30
2017-11-28T06:53:33.313Z,1.53
2017-11-28T06:55:59.654Z,1.70
2017-11-28T06:58:25.946Z,1.77
2017-11-28T07:00:52.232Z,1.53
2017-11-28T07:03:18.457Z,1.43
2017-11-28T07:05:44.751Z,1.67
2017-11-28T07:08:11.016Z,1.90
2017-11-28T07:10:38.218Z,2.10
2017-11-28T07:13:04.426Z,1.77
2017-11-28T07:15:30.742Z,1.63
2017-11-28T07:17:56.962Z,1.90
2017-11-28T07:20:23.181Z,2.53
2017-11-28T07:22:49.397Z,2.50
2017-11-28T07:25:15.626Z,2.40
2017-11-28T07:27:42.013Z,2.00
2017-11-28T07:30:08.229Z,2.70
2017-11-28T07:32:34.493Z,2.30
2017-11-28T07:35:00.766Z,2.13
2017-11-28T07:37:27.001Z,2.40
2017-11-28T07:39:53.278Z,2.27
2017-11-28T07:42:20.538Z,2.80
2017-11-28T07:44:46.826Z,2.10
2017-11-28T07:47:13.821Z,2.20
2017-11-28T07:49:40.157Z,2.23
2017-11-28T07:52:06.390Z,2.73
2017-11-28T07:54:32.587Z,2.33
2017-11-28T07:56:59.674Z,2.23
2017-11-28T07:59:26.534Z,2.03
2017-11-28T08:01:52.803Z,2.03
2017-11-28T08:04:19.102Z,2.10
2017-11-28T08:06:48.227Z,2.37
2017-11-28T08:09:14.587Z,2.20
2017-11-28T08:11:41.744Z,1.87
2017-11-28T08:14:07.987Z,2.30
2017-11-28T08:16:34.262Z,2.20
2017-11-28T08:19:00.545Z,2.30
2017-11-28T08:21:27.559Z,2.00
2017-11-28T08:23:53.797Z,2.50
2017-11-28T08:26:20.118Z,3.40
2017-11-28T08:28:47.086Z,3.10
2017-11-28T08:31:13.486Z,2.00
2017-11-28T08:33:40.450Z,2.37
2017-11-28T08:36:06.699Z,2.10
2017-11-28T08:38:32.938Z,4.20
2017-11-28T08:40:59.918Z,2.20
2017-11-28T08:43:26.134Z,2.50
2017-11-28T08:45:53.094Z,2.07
2017-11-28T08:48:19.406Z,2.20
2017-11-28T08:50:46.409Z,3.10
2017-11-28T08:53:12.709Z,2.77
2017-11-28T08:55:38.942Z,2.10
2017-11-28T08:58:05.312Z,2.43
2017-11-28T09:00:31.619Z,2.70
2017-11-28T09:02:58.595Z,2.30
2017-11-28T09:05:24.939Z,2.20
2017-11-28T09:07:51.193Z,2.00
2017-11-28T09:10:17.542Z,2.30
2017-11-28T09:12:43.917Z,2.60
2017-11-28T09:15:10.885Z,2.67
2017-11-28T09:17:37.181Z,2.70
2017-11-28T09:20:03.443Z,3.27
2017-11-28T09:22:29.724Z,3.77
2017-11-28T09:24:55.974Z,3.10
2017-11-28T09:27:22.358Z,2.73
2017-11-28T09:29:48.585Z,2.97
2017-11-28T09:32:14.781Z,2.90
2017-11-28T09:34:41.128Z,3.50
2017-11-28T09:37:07.330Z,3.73
2017-11-28T09:39:33.583Z,2.90
2017-11-28T09:42:00.613Z,3.50
2017-11-28T09:44:27.843Z,3.63
2017-11-28T09:46:54.852Z,3.47
2017-11-28T09:49:21.166Z,3.70
2017-11-28T09:51:47.578Z,3.50
2017-11-28T09:54:13.907Z,3.90
2017-11-28T09:56:40.131Z,4.60
2017-11-28T09:59:06.439Z,3.50
2017-11-28T10:01:34.303Z,3.87
2017-11-28T10:04:00.593Z,3.63
2017-11-28T10:06:27.948Z,3.40
2017-11-28T10:11:29.170Z,2.13
2017-11-28T10:13:55.478Z,2.37
2017-11-28T10:16:21.932Z,2.40
2017-11-28T10:21:51.451Z,2.00
2017-11-28T10:24:17.759Z,1.33
2017-11-28T10:26:44.057Z,1.57
2017-11-28T10:29:11.511Z,1.30
2017-11-28T10:31:37.910Z,1.80
2017-11-28T10:34:04.178Z,1.83
2017-11-28T10:36:31.382Z,1.30
2017-11-28T10:38:57.654Z,1.60
2017-11-28T10:41:23.898Z,1.57
2017-11-28T10:43:50.880Z,2.07
2017-11-28T10:46:17.646Z,2.20
2017-11-28T10:48:44.687Z,1.73
2017-11-28T10:51:11.637Z,1.80
2017-11-28T10:53:39.728Z,1.43
2017-11-28T10:56:09.711Z,1.93
2017-11-28T10:58:36.056Z,2.10
2017-11-28T11:01:02.359Z,1.70
2017-11-28T11:03:28.843Z,1.77
2017-11-28T11:05:55.081Z,1.87
2017-11-28T11:08:21.426Z,1.67
2017-11-28T11:10:47.645Z,2.30
2017-11-28T11:13:13.852Z,2.20
2017-11-28T11:15:40.102Z,2.27
2017-11-28T11:18:23.388Z,1.77
2017-11-28T11:20:49.651Z,2.00
2017-11-28T11:23:15.871Z,1.73
2017-11-28T11:25:42.341Z,1.43
2017-11-28T11:28:08.683Z,2.07
2017-11-28T11:30:35.811Z,2.47
2017-11-28T11:33:03.884Z,2.43
2017-11-28T11:35:32.083Z,2.20
2017-11-28T11:37:58.301Z,1.80
2017-11-28T11:40:24.821Z,1.70
2017-11-28T11:42:52.469Z,1.50
2017-11-28T11:45:19.299Z,1.30
2017-11-28T11:47:47.490Z,1.63
2017-11-28T11:50:14.634Z,1.50
2017-11-28T11:52:41.015Z,1.70
2017-11-28T11:55:08.251Z,1.50
2017-11-28T11:57:34.536Z,1.40
2017-11-28T12:00:02.180Z,1.80
2017-11-28T12:02:28.449Z,1.80
2017-11-28T12:04:54.750Z,1.67
2017-11-28T12:07:21.018Z,1.70
2017-11-28T12:09:47.213Z,1.60
2017-11-28T12:12:13.980Z,1.80
2017-11-28T12:14:40.226Z,2.00
2017-11-28T12:17:07.219Z,1.70
2017-11-28T12:19:33.601Z,2.60
2017-11-28T12:21:59.838Z,1.87
2017-11-28T12:24:26.492Z,2.20
2017-11-28T12:26:52.825Z,1.80
2017-11-28T12:32:11.043Z,2.00
2017-11-28T12:34:37.293Z,2.10
2017-11-28T12:37:04.312Z,1.73
2017-11-28T12:39:30.632Z,1.93
2017-11-28T12:41:56.904Z,2.00
2017-11-28T12:44:23.294Z,1.83
2017-11-28T12:46:49.552Z,1.33
2017-11-28T12:49:15.793Z,1.50
2017-11-28T12:51:42.854Z,1.80
2017-11-28T12:54:09.116Z,1.73
2017-11-28T12:56:35.374Z,2.17
2017-11-28T12:59:01.748Z,2.77
2017-11-28T13:01:28.010Z,1.90
2017-11-28T13:03:54.350Z,2.07
2017-11-28T13:06:20.662Z,2.03
2017-11-28T13:08:46.913Z,1.80
2017-11-28T13:11:13.184Z,2.37
2017-11-28T13:13:39.407Z,1.60
2017-11-28T13:16:05.725Z,2.00
2017-11-28T13:18:31.921Z,2.40
2017-11-28T13:20:58.138Z,1.63
2017-11-28T13:23:24.402Z,1.70
2017-11-28T13:25:50.630Z,1.60
2017-11-28T13:28:17.673Z,1.90
2017-11-28T13:30:44.743Z,1.90
2017-11-28T13:33:11.008Z,1.30
2017-11-28T13:35:37.270Z,2.40
2017-11-28T13:38:03.615Z,1.57
2017-11-28T13:40:29.975Z,1.43
2017-11-28T13:42:56.237Z,2.00
2017-11-28T13:45:22.519Z,1.67
2017-11-28T13:47:48.804Z,1.50
2017-11-28T13:50:15.034Z,1.60
2017-11-28T13:52:41.274Z,1.60
2017-11-28T13:55:07.530Z,1.33
2017-11-28T13:57:34.506Z,1.80
2017-11-28T14:00:00.712Z,1.70
2017-11-28T14:02:26.954Z,1.60
2017-11-28T14:04:53.313Z,1.60
2017-11-28T14:07:20.330Z,1.90
2017-11-28T14:09:46.513Z,1.67
2017-11-28T14:12:12.760Z,1.57
2017-11-28T14:14:39.920Z,1.33
2017-11-28T14:17:06.175Z,1.83
2017-11-28T14:19:32.469Z,1.73
2017-11-28T14:22:02.584Z,1.67
2017-11-28T14:24:31.644Z,1.50
2017-11-28T14:27:06.649Z,1.90
2017-11-28T14:29:32.974Z,1.50
2017-11-28T14:32:04.156Z,1.73
2017-11-28T14:34:33.354Z,1.87
2017-11-28T14:36:59.670Z,1.80
2017-11-28T14:39:29.694Z,1.60
2017-11-28T14:41:58.487Z,1.80
2017-11-28T14:44:24.809Z,2.37
2017-11-28T14:46:51.257Z,1.83
2017-11-28T14:49:17.603Z,2.20
2017-11-28T14:51:56.765Z,1.87
2017-11-28T14:54:29.222Z,1.70
2017-11-28T15:00:13.325Z,2.20
2017-11-28T15:02:45.694Z,2.07
2017-11-28T15:05:18.119Z,2.00
2017-11-28T15:07:51.097Z,2.10
2017-11-28T15:10:32.280Z,1.93
2017-11-28T15:16:16.725Z,2.70
2017-11-28T15:18:45.868Z,1.67
2017-11-28T15:35:00.228Z,2.20
2017-11-28T15:37:27.566Z,2.97
2017-11-28T15:39:53.849Z,3.17
2017-11-28T15:42:21.081Z,2.40
2017-11-28T15:44:48.921Z,2.93
2017-11-28T15:47:15.204Z,2.27
2017-11-28T15:49:41.564Z,2.90
2017-11-28T15:52:07.811Z,2.27
2017-11-28T15:54:34.886Z,2.67
2017-11-28T15:57:01.283Z,2.50
2017-11-28T15:59:28.173Z,2.40
2017-11-28T16:01:54.402Z,2.00
2017-11-28T16:04:20.792Z,3.03
2017-11-28T16:06:47.305Z,3.20
2017-11-28T16:09:13.641Z,3.53
2017-11-28T16:11:39.964Z,3.60
2017-11-28T16:14:06.338Z,3.37
2017-11-28T16:16:32.601Z,4.30
2017-11-28T16:18:59.266Z,2.70
2017-11-28T16:21:25.771Z,3.03
2017-11-28T16:23:52.725Z,3.30
2017-11-28T16:26:18.965Z,3.27
2017-11-28T16:28:45.764Z,4.10
2017-11-28T16:31:12.016Z,3.73
2017-11-28T16:33:38.344Z,3.47
2017-11-28T16:36:06.305Z,3.70
2017-11-28T16:38:32.613Z,3.20
2017-11-28T16:40:58.884Z,3.97
2017-11-28T16:43:28.329Z,4.00
2017-11-28T16:45:54.633Z,4.10
2017-11-28T16:48:21.582Z,3.93
2017-11-28T16:50:47.852Z,3.70
2017-11-28T16:53:14.120Z,3.83
2017-11-28T16:55:41.134Z,3.83
2017-11-28T16:58:08.116Z,4.43
2017-11-28T17:00:34.608Z,5.30
2017-11-28T17:03:00.832Z,5.10
2017-11-28T17:05:27.090Z,4.70
2017-11-28T17:07:53.462Z,5.33
2017-11-28T17:10:20.811Z,10.37
2017-11-28T17:12:47.055Z,6.13
2017-11-28T17:15:13.378Z,10.70
2017-11-28T17:17:39.666Z,8.30
2017-11-28T17:20:06.063Z,7.70
2017-11-28T17:22:32.439Z,7.50
2017-11-28T17:24:59.439Z,7.17
2017-11-28T17:27:25.707Z,6.77
2017-11-28T17:29:51.958Z,9.20
2017-11-28T17:32:18.185Z,9.87
2017-11-28T17:34:44.482Z,6.90
2017-11-28T17:37:10.732Z,5.43
2017-11-28T17:39:37.049Z,5.40
2017-11-28T17:42:03.401Z,7.87
2017-11-28T17:44:29.647Z,6.30
2017-11-28T17:46:55.878Z,6.40
2017-11-28T17:49:22.246Z,7.23
2017-11-28T17:51:48.550Z,7.00
2017-11-28T17:54:15.663Z,13.67
2017-11-28T17:56:41.892Z,19.73
2017-11-28T17:59:08.227Z,17.60
2017-11-28T18:01:34.618Z,11.63
2017-11-28T18:04:01.244Z,8.00
2017-11-28T18:06:27.492Z,22.43
2017-11-28T18:08:53.760Z,7.43
2017-11-28T18:11:20.202Z,49.67
2017-11-28T18:13:47.314Z,8.40
2017-11-28T18:16:13.657Z,44.87
2017-11-28T18:18:40.051Z,12.47
2017-11-28T18:21:06.298Z,9.03
2017-11-28T18:23:32.671Z,7.10
2017-11-28T18:25:59.717Z,6.77
2017-11-28T18:28:26.127Z,7.33
2017-11-28T18:30:52.579Z,7.13
2017-11-28T18:33:18.904Z,7.30
2017-11-28T18:35:45.279Z,7.00
2017-11-28T18:38:11.599Z,7.37
2017-11-28T18:40:37.822Z,9.00
2017-11-28T18:43:04.461Z,6.77
2017-11-28T18:45:31.454Z,6.33
2017-11-28T18:47:57.690Z,6.90
2017-11-28T18:50:24.682Z,8.00
2017-11-28T18:52:50.997Z,6.30
2017-11-28T18:55:17.330Z,8.57
2017-11-28T18:57:43.757Z,9.70
2017-11-28T19:00:10.034Z,7.13
2017-11-28T19:02:36.385Z,6.57
2017-11-28T19:05:02.617Z,6.17
2017-11-28T19:07:29.666Z,6.10
2017-11-28T19:09:56.679Z,6.87
2017-11-28T19:12:22.929Z,6.07
2017-11-28T19:14:49.237Z,6.83
2017-11-28T19:17:15.533Z,6.80
2017-11-28T19:19:41.877Z,7.00
2017-11-28T19:22:08.126Z,6.73
2017-11-28T19:24:34.374Z,6.57
2017-11-28T19:27:00.851Z,6.87
2017-11-28T19:29:27.862Z,9.37
2017-11-28T19:31:54.167Z,6.90
2017-11-28T19:34:20.455Z,8.20
2017-11-28T19:36:47.100Z,7.70
2017-11-28T19:39:13.367Z,9.80
2017-11-28T19:41:39.622Z,6.87
2017-11-28T19:44:11.772Z,8.00
2017-11-28T19:46:38.057Z,7.23
2017-11-28T19:49:04.346Z,6.80
2017-11-28T19:51:30.585Z,6.50
2017-11-28T19:53:57.014Z,8.27
2017-11-28T19:56:23.235Z,7.10
2017-11-28T19:58:49.506Z,7.17
2017-11-28T20:01:15.867Z,7.50
2017-11-28T20:03:42.106Z,8.43
2017-11-28T20:06:08.419Z,9.67
2017-11-28T20:08:34.659Z,8.13
2017-11-28T20:11:00.960Z,8.00
2017-11-28T20:13:28.011Z,7.90
2017-11-28T20:15:54.701Z,8.13
2017-11-28T20:18:20.999Z,7.80
2017-11-28T20:20:47.370Z,7.90
2017-11-28T20:23:13.857Z,9.07
2017-11-28T20:25:40.120Z,7.93
2017-11-28T20:28:06.564Z,9.50
2017-11-28T20:30:32.952Z,7.23
2017-11-28T20:32:59.226Z,8.10
2017-11-28T20:35:25.506Z,8.20
2017-11-28T20:37:52.980Z,8.13
2017-11-28T20:40:19.216Z,9.03
2017-11-28T20:42:46.249Z,7.93
2017-11-28T20:45:12.656Z,8.70
2017-11-28T20:47:39.740Z,9.37
2017-11-28T20:50:06.174Z,9.60
2017-11-28T20:52:32.485Z,9.60
2017-11-28T20:54:58.703Z,10.50
2017-11-28T20:57:25.014Z,9.83
2017-11-28T20:59:51.360Z,9.53
2017-11-28T21:02:17.637Z,9.67
2017-11-28T21:04:43.917Z,12.20
2017-11-28T21:07:10.257Z,11.50
2017-11-28T21:09:36.866Z,16.77
2017-11-28T21:12:03.123Z,11.30
2017-11-28T21:14:29.358Z,11.07
2017-11-28T21:16:55.673Z,11.17
2017-11-28T21:19:22.023Z,10.80
2017-11-28T21:21:48.245Z,10.33
2017-11-28T21:24:14.471Z,10.73
2017-11-28T21:26:40.862Z,13.27
2017-11-28T21:29:07.111Z,11.93
2017-11-28T21:31:34.064Z,14.77
2017-11-28T21:34:00.346Z,10.57
2017-11-28T21:36:26.634Z,10.40
2017-11-28T21:38:53.589Z,10.63
2017-11-28T21:41:20.687Z,10.20
2017-11-28T21:43:47.642Z,12.00
2017-11-28T21:46:13.918Z,9.57
2017-11-28T21:48:40.224Z,11.80
2017-11-28T21:51:06.473Z,10.83
2017-11-28T21:53:33.437Z,10.70
2017-11-28T21:55:59.897Z,10.23
2017-11-28T21:58:26.110Z,11.13
2017-11-28T22:00:52.386Z,11.17
2017-11-28T22:03:18.659Z,10.40
2017-11-28T22:05:45.064Z,11.30
2017-11-28T22:08:11.344Z,12.93
2017-11-28T22:10:37.716Z,14.47
2017-11-28T22:13:04.051Z,13.03
2017-11-28T22:15:30.300Z,12.70
2017-11-28T22:17:56.544Z,11.70
2017-11-28T22:20:22.815Z,12.00
2017-11-28T22:22:49.154Z,11.43
2017-11-28T22:25:15.408Z,11.40
2017-11-28T22:27:41.621Z,11.90
2017-11-28T22:30:07.857Z,11.57
2017-11-28T22:32:34.149Z,13.23
2017-11-28T22:35:00.453Z,11.90
2017-11-28T22:37:26.743Z,11.23
2017-11-28T22:39:53.094Z,10.40
2017-11-28T22:42:19.347Z,11.10
2017-11-28T22:44:45.595Z,11.57
2017-11-28T22:47:12.020Z,11.47
2017-11-28T22:49:39.025Z,11.13
2017-11-28T22:52:05.226Z,10.83
2017-11-28T22:54:31.503Z,10.23
2017-11-28T22:56:57.780Z,11.37
2017-11-28T22:59:24.080Z,12.20
2017-11-28T23:01:50.326Z,10.80
2017-11-28T23:04:16.625Z,16.50
2017-11-28T23:06:42.849Z,14.70
2017-11-28T23:09:09.881Z,11.30
2017-11-28T23:11:36.866Z,10.93
2017-11-28T23:14:03.124Z,12.53
2017-11-28T23:16:30.087Z,26.20
2017-11-28T23:18:56.325Z,45.13
2017-11-28T23:21:22.573Z,85.33
2017-11-28T23:23:48.995Z,17.47
2017-11-28T23:26:16.015Z,11.47
2017-11-28T23:28:42.327Z,11.53
2017-11-28T23:31:08.622Z,12.80
2017-11-28T23:33:34.915Z,11.67
2017-11-28T23:36:01.309Z,11.17
2017-11-28T23:38:27.547Z,12.40
2017-11-28T23:40:53.803Z,13.50
2017-11-28T23:43:20.119Z,15.33
2017-11-28T23:45:46.491Z,16.50
2017-11-28T23:48:12.751Z,19.03
2017-11-28T23:50:39.076Z,17.97
2017-11-28T23:53:06.258Z,20.10
2017-11-28T23:55:32.517Z,22.90
2017-11-28T23:57:58.837Z,22.90
